createdAt,value
2022-11-03T00:01:50.777Z,8.90
2022-11-03T00:04:19.279Z,8.90
2022-11-03T00:06:49.309Z,8.90
2022-11-03T00:09:17.571Z,8.90
2022-11-03T00:11:46.193Z,8.90
2022-11-03T00:14:14.906Z,8.90
2022-11-03T00:16:41.594Z,8.80
2022-11-03T00:19:09.950Z,8.80
2022-11-03T00:21:37.367Z,8.90
2022-11-03T00:24:04.929Z,9.00
2022-11-03T00:26:33.122Z,9.00
2022-11-03T00:29:01.758Z,9.00
2022-11-03T00:31:30.829Z,9.00
2022-11-03T00:33:59.361Z,9.00
2022-11-03T00:36:28.295Z,9.00
2022-11-03T00:38:55.596Z,9.00
2022-11-03T00:41:23.388Z,9.00
2022-11-03T00:43:51.068Z,8.90
2022-11-03T00:46:18.224Z,9.00
2022-11-03T00:48:44.969Z,8.90
2022-11-03T00:51:14.536Z,8.90
2022-11-03T00:53:52.327Z,8.80
2022-11-03T00:56:18.866Z,8.80
2022-11-03T00:58:46.067Z,8.80
2022-11-03T01:01:24.259Z,8.80
2022-11-03T01:04:15.041Z,8.70
2022-11-03T01:06:50.555Z,8.70
2022-11-03T01:09:22.125Z,8.60
2022-11-03T01:12:08.150Z,8.60
2022-11-03T01:14:39.855Z,8.60
2022-11-03T01:17:08.894Z,8.50
2022-11-03T01:19:35.505Z,8.60
2022-11-03T01:22:05.267Z,8.50
2022-11-03T01:24:36.126Z,8.50
2022-11-03T01:27:02.970Z,8.50
2022-11-03T01:29:29.550Z,8.40
2022-11-03T01:31:56.090Z,8.40
2022-11-03T01:34:22.802Z,8.40
2022-11-03T01:36:49.753Z,8.50
2022-11-03T01:39:18.925Z,8.50
2022-11-03T01:41:47.816Z,8.50
2022-11-03T01:44:14.367Z,8.50
2022-11-03T01:46:48.680Z,8.40
2022-11-03T01:49:24.828Z,8.50
2022-11-03T01:52:30.061Z,8.50
2022-11-03T01:55:19.474Z,8.50
2022-11-03T01:57:59.330Z,8.40
2022-11-03T02:05:46.119Z,8.40
2022-11-03T02:08:30.627Z,8.30
2022-11-03T02:10:58.262Z,8.30
2022-11-03T02:13:26.989Z,8.20
2022-11-03T02:15:57.442Z,8.10
2022-11-03T02:18:27.851Z,8.00
2022-11-03T02:21:04.920Z,8.00
2022-11-03T02:23:48.693Z,8.10
2022-11-03T02:26:16.566Z,8.10
2022-11-03T02:28:43.339Z,8.10
2022-11-03T02:31:21.559Z,8.10
2022-11-03T02:33:59.513Z,8.10
2022-11-03T02:36:34.785Z,8.20
2022-11-03T02:39:07.319Z,8.20
2022-11-03T02:41:37.138Z,8.20
2022-11-03T02:44:07.508Z,8.20
2022-11-03T02:46:35.711Z,8.20
2022-11-03T02:49:02.317Z,8.20
2022-11-03T02:51:28.907Z,8.20
2022-11-03T02:54:19.209Z,8.20
2022-11-03T02:57:07.861Z,8.10
2022-11-03T02:59:43.879Z,8.10
2022-11-03T03:02:17.897Z,8.00
2022-11-03T03:04:50.730Z,8.00
2022-11-03T03:07:24.877Z,8.00
2022-11-03T03:10:04.552Z,8.00
2022-11-03T03:12:33.616Z,8.00
2022-11-03T03:15:02.046Z,7.90
2022-11-03T03:17:44.339Z,7.90
2022-11-03T03:20:31.661Z,7.80
2022-11-03T03:23:20.524Z,7.80
2022-11-03T03:26:01.155Z,7.70
2022-11-03T03:28:52.453Z,7.70
2022-11-03T03:31:21.151Z,7.70
2022-11-03T03:33:53.299Z,7.70
2022-11-03T03:36:26.092Z,7.70
2022-11-03T03:38:56.890Z,7.60
2022-11-03T03:41:26.175Z,7.70
2022-11-03T03:43:55.856Z,7.60
2022-11-03T03:46:24.992Z,7.70
2022-11-03T03:48:51.579Z,7.70
2022-11-03T03:51:22.876Z,7.70
2022-11-03T03:53:53.514Z,7.60
2022-11-03T03:56:52.034Z,7.60
2022-11-03T03:59:18.636Z,7.70
2022-11-03T04:01:45.386Z,7.70
2022-11-03T04:04:12.110Z,7.70
2022-11-03T04:06:38.737Z,7.70
2022-11-03T04:09:05.301Z,7.70
2022-11-03T04:11:50.522Z,7.70
2022-11-03T04:14:35.767Z,7.70
2022-11-03T04:17:21.302Z,7.70
2022-11-03T04:20:06.694Z,7.60
2022-11-03T04:22:33.968Z,7.60
2022-11-03T04:25:01.001Z,7.70
2022-11-03T04:27:35.723Z,7.70
2022-11-03T04:30:20.004Z,7.60
2022-11-03T04:32:48.924Z,7.60
2022-11-03T04:35:18.527Z,7.60
2022-11-03T04:37:48.708Z,7.60
2022-11-03T04:40:16.643Z,7.60
2022-11-03T04:42:44.462Z,7.50
2022-11-03T04:45:28.155Z,7.60
2022-11-03T04:47:55.570Z,7.50
2022-11-03T04:50:23.567Z,7.50
2022-11-03T04:52:55.929Z,7.60
2022-11-03T04:55:22.797Z,7.60
2022-11-03T04:57:56.730Z,7.60
2022-11-03T05:00:23.450Z,7.60
2022-11-03T05:02:54.839Z,7.60
2022-11-03T05:05:25.470Z,7.60
2022-11-03T05:07:55.460Z,7.60
2022-11-03T05:10:25.876Z,7.60
2022-11-03T05:12:54.036Z,7.50
2022-11-03T05:15:31.467Z,7.60
2022-11-03T05:18:01.345Z,7.50
2022-11-03T05:20:36.134Z,7.50
2022-11-03T05:23:05.288Z,7.50
2022-11-03T05:25:35.392Z,7.50
2022-11-03T05:28:03.041Z,7.40
2022-11-03T05:30:30.639Z,7.40
2022-11-03T05:32:58.229Z,7.30
2022-11-03T05:35:24.830Z,7.30
2022-11-03T05:37:51.463Z,7.30
2022-11-03T05:40:24.070Z,7.20
2022-11-03T05:42:56.353Z,7.20
2022-11-03T05:45:26.586Z,7.20
2022-11-03T05:47:55.331Z,7.20
2022-11-03T05:50:25.184Z,7.20
2022-11-03T05:52:56.065Z,7.20
2022-11-03T05:55:31.543Z,7.10
2022-11-03T05:58:01.107Z,7.10
2022-11-03T06:00:33.259Z,7.10
2022-11-03T06:03:00.931Z,7.20
2022-11-03T06:05:27.879Z,7.10
2022-11-03T06:07:57.280Z,7.10
2022-11-03T06:10:33.807Z,7.20
2022-11-03T06:13:09.052Z,7.10
2022-11-03T06:15:36.950Z,7.10
2022-11-03T06:18:22.070Z,7.10
2022-11-03T06:20:56.830Z,7.00
2022-11-03T06:23:23.763Z,7.10
2022-11-03T06:25:53.867Z,7.10
2022-11-03T06:28:25.654Z,7.10
2022-11-03T06:30:52.580Z,7.20
2022-11-03T06:33:22.021Z,7.20
2022-11-03T06:35:51.779Z,7.20
2022-11-03T06:38:22.327Z,7.30
2022-11-03T06:40:52.987Z,7.20
2022-11-03T06:43:32.849Z,7.20
2022-11-03T06:46:05.922Z,7.30
2022-11-03T06:48:35.422Z,7.40
2022-11-03T06:51:02.062Z,7.40
2022-11-03T06:53:32.585Z,7.50
2022-11-03T06:55:59.675Z,7.50
2022-11-03T06:58:36.559Z,7.60
2022-11-03T07:01:12.684Z,7.70
2022-11-03T07:03:39.292Z,7.70
2022-11-03T07:06:17.918Z,7.70
2022-11-03T07:09:02.199Z,7.70
2022-11-03T07:11:32.317Z,7.70
2022-11-03T07:14:10.532Z,7.70
2022-11-03T07:16:42.391Z,7.80
2022-11-03T07:19:40.734Z,7.80
2022-11-03T07:22:19.844Z,7.90
2022-11-03T07:24:48.374Z,8.00
2022-11-03T07:27:26.206Z,8.00
2022-11-03T07:30:31.126Z,8.00
2022-11-03T07:33:02.142Z,8.00
2022-11-03T07:36:08.353Z,8.10
2022-11-03T07:38:28.375Z,8.20
2022-11-03T07:40:57.756Z,8.20
2022-11-03T07:43:49.312Z,8.20
2022-11-03T07:46:20.550Z,8.20
2022-11-03T07:48:49.195Z,8.20
2022-11-03T07:51:33.312Z,8.20
2022-11-03T07:54:08.882Z,8.20
2022-11-03T07:56:39.711Z,8.30
2022-11-03T07:59:09.101Z,8.30
2022-11-03T08:01:40.139Z,8.30
2022-11-03T08:04:16.639Z,8.30
2022-11-03T08:06:43.235Z,8.30
2022-11-03T08:09:09.811Z,8.40
2022-11-03T08:11:36.443Z,8.50
2022-11-03T08:14:03.040Z,8.50
2022-11-03T08:16:29.597Z,8.60
2022-11-03T08:18:56.198Z,8.70
2022-11-03T08:21:23.369Z,8.80
2022-11-03T08:23:50.298Z,8.80
2022-11-03T08:26:17.220Z,8.90
2022-11-03T08:28:43.938Z,8.80
2022-11-03T08:31:12.868Z,8.90
2022-11-03T08:33:40.646Z,8.90
2022-11-03T08:36:10.866Z,9.00
2022-11-03T08:38:37.731Z,9.00
2022-11-03T08:41:04.457Z,9.00
2022-11-03T08:43:31.232Z,9.10
2022-11-03T08:46:05.591Z,9.10
2022-11-03T08:48:39.826Z,9.20
2022-11-03T08:51:08.197Z,9.30
2022-11-03T08:53:35.306Z,9.40
2022-11-03T08:56:01.905Z,9.40
2022-11-03T08:58:28.534Z,9.50
2022-11-03T09:00:55.166Z,9.50
2022-11-03T09:03:21.900Z,9.50
2022-11-03T09:05:48.679Z,9.50
2022-11-03T09:11:01.968Z,9.60
2022-11-03T09:13:28.588Z,9.60
2022-11-03T09:15:55.155Z,9.60
2022-11-03T09:18:22.629Z,9.60
2022-11-03T09:20:49.209Z,9.70
2022-11-03T09:23:15.871Z,9.80
2022-11-03T09:25:42.569Z,9.90
2022-11-03T09:28:09.472Z,10.00
2022-11-03T09:30:36.391Z,10.00
2022-11-03T09:33:03.834Z,10.10
2022-11-03T09:35:30.517Z,10.20
2022-11-03T09:37:57.559Z,10.20
2022-11-03T09:40:25.293Z,10.30
2022-11-03T09:42:52.212Z,10.30
2022-11-03T09:45:18.821Z,10.50
2022-11-03T09:47:51.531Z,10.50
2022-11-03T09:50:20.110Z,10.60
2022-11-03T09:52:51.506Z,10.60
2022-11-03T09:55:25.001Z,10.70
2022-11-03T09:58:00.761Z,10.80
2022-11-03T10:00:27.680Z,10.90
2022-11-03T10:02:55.126Z,11.00
2022-11-03T10:05:27.171Z,11.00
2022-11-03T10:08:02.939Z,11.10
2022-11-03T10:10:30.266Z,11.20
2022-11-03T10:12:57.153Z,11.30
2022-11-03T10:15:25.835Z,11.40
2022-11-03T10:17:53.544Z,11.40
2022-11-03T10:20:22.645Z,11.50
2022-11-03T10:22:53.129Z,11.60
2022-11-03T10:25:38.942Z,11.70
2022-11-03T10:28:14.416Z,11.70
2022-11-03T10:33:52.151Z,11.90
2022-11-03T10:36:18.813Z,12.00
2022-11-03T10:38:46.215Z,12.10
2022-11-03T10:41:12.862Z,12.10
2022-11-03T10:43:41.045Z,12.20
2022-11-03T10:49:15.333Z,12.20
2022-11-03T10:51:44.055Z,12.30
2022-11-03T10:54:16.675Z,12.30
2022-11-03T10:56:44.961Z,12.40
2022-11-03T10:59:20.940Z,12.40
2022-11-03T11:01:48.047Z,12.50
2022-11-03T11:04:19.738Z,12.50
2022-11-03T11:06:46.922Z,12.60
2022-11-03T11:09:27.211Z,12.60
2022-11-03T11:12:05.340Z,12.60
2022-11-03T11:14:34.744Z,12.70
2022-11-03T11:17:02.146Z,12.70
2022-11-03T11:19:29.976Z,12.70
2022-11-03T11:21:56.512Z,12.80
2022-11-03T11:24:44.946Z,12.70
2022-11-03T11:27:40.606Z,12.80
2022-11-03T11:30:27.325Z,12.80
2022-11-03T11:33:12.918Z,12.80
2022-11-03T11:35:39.460Z,12.80
2022-11-03T11:38:43.452Z,12.80
2022-11-03T11:41:10.053Z,12.80
2022-11-03T11:43:36.703Z,12.80
2022-11-03T11:46:22.203Z,12.80
2022-11-03T11:49:03.825Z,12.80
2022-11-03T11:51:35.414Z,12.70
2022-11-03T11:54:18.483Z,12.70
2022-11-03T11:56:47.570Z,12.70
2022-11-03T11:59:26.064Z,12.70
2022-11-03T12:01:56.987Z,12.60
2022-11-03T12:04:33.149Z,12.60
2022-11-03T12:07:00.064Z,12.60
2022-11-03T12:09:28.265Z,12.50
2022-11-03T12:12:07.136Z,12.50
2022-11-03T12:14:37.535Z,12.50
2022-11-03T12:17:16.341Z,12.50
2022-11-03T12:19:45.126Z,12.50
2022-11-03T12:22:23.996Z,12.50
2022-11-03T12:24:51.482Z,12.40
2022-11-03T12:27:40.877Z,12.50
2022-11-03T12:30:16.743Z,12.40
2022-11-03T12:32:43.488Z,12.40
2022-11-03T12:35:13.418Z,12.50
2022-11-03T12:37:40.890Z,12.40
2022-11-03T12:40:08.059Z,12.40
2022-11-03T12:42:35.066Z,12.50
2022-11-03T12:45:01.684Z,12.50
2022-11-03T12:47:28.230Z,12.50
2022-11-03T12:49:54.836Z,12.40
2022-11-03T12:52:21.548Z,12.40
2022-11-03T12:54:48.360Z,12.40
2022-11-03T12:57:15.056Z,12.40
2022-11-03T12:59:41.654Z,12.50
2022-11-03T13:02:10.760Z,12.50
2022-11-03T13:04:38.011Z,12.50
2022-11-03T13:07:04.647Z,12.60
2022-11-03T13:09:31.281Z,12.50
2022-11-03T13:12:16.572Z,12.50
2022-11-03T13:14:46.049Z,12.60
2022-11-03T13:17:14.409Z,12.60
2022-11-03T13:19:41.020Z,12.60
2022-11-03T13:22:07.570Z,12.60
2022-11-03T13:24:34.335Z,12.60
2022-11-03T13:27:01.060Z,12.60
2022-11-03T13:29:32.451Z,12.60
2022-11-03T13:32:03.397Z,12.60
2022-11-03T13:34:30.407Z,12.60
2022-11-03T13:36:57.169Z,12.60
2022-11-03T13:39:23.759Z,12.60
2022-11-03T13:41:50.408Z,12.60
2022-11-03T13:44:17.101Z,12.60
2022-11-03T13:46:43.687Z,12.60
2022-11-03T13:51:57.040Z,12.60
2022-11-03T14:00:01.892Z,12.60
2022-11-03T14:05:17.875Z,12.50
2022-11-03T14:07:45.056Z,12.50
2022-11-03T14:10:11.622Z,12.50
2022-11-03T14:12:38.206Z,12.50
2022-11-03T14:15:10.869Z,12.50
2022-11-03T14:17:38.599Z,12.50
2022-11-03T14:20:07.117Z,12.50
2022-11-03T14:22:33.780Z,12.60
2022-11-03T14:25:01.207Z,12.50
2022-11-03T14:27:28.043Z,12.50
2022-11-03T14:29:54.774Z,12.50
2022-11-03T14:32:22.140Z,12.50
2022-11-03T14:34:48.972Z,12.60
2022-11-03T14:37:16.039Z,12.60
2022-11-03T14:39:42.891Z,12.50
2022-11-03T14:42:16.404Z,12.50
2022-11-03T14:44:45.453Z,12.50
2022-11-03T14:47:19.197Z,12.50
2022-11-03T14:49:46.279Z,12.50
2022-11-03T14:52:13.442Z,12.50
2022-11-03T14:54:40.053Z,12.50
2022-11-03T14:57:06.686Z,12.50
2022-11-03T14:59:34.342Z,12.40
2022-11-03T15:02:01.403Z,12.40
2022-11-03T15:04:28.326Z,12.40
2022-11-03T15:06:54.927Z,12.50
2022-11-03T15:09:21.690Z,12.50
2022-11-03T15:11:51.289Z,12.50
2022-11-03T15:14:17.851Z,12.40
2022-11-03T15:16:45.988Z,12.40
2022-11-03T15:19:12.702Z,12.50
2022-11-03T15:21:39.310Z,12.40
2022-11-03T15:26:52.881Z,12.40
2022-11-03T15:29:19.841Z,12.40
2022-11-03T15:31:48.486Z,12.40
2022-11-03T15:34:16.364Z,12.40
2022-11-03T15:36:43.032Z,12.40
2022-11-03T15:39:09.747Z,12.40
2022-11-03T15:41:36.433Z,12.40
2022-11-03T15:44:03.313Z,12.30
2022-11-03T15:46:29.945Z,12.30
2022-11-03T15:48:57.477Z,12.30
2022-11-03T15:51:24.373Z,12.30
2022-11-03T15:53:56.772Z,12.30
2022-11-03T15:56:25.211Z,12.30
2022-11-03T15:58:51.819Z,12.30
2022-11-03T16:01:18.568Z,12.30
2022-11-03T16:03:45.480Z,12.30
2022-11-03T16:06:12.082Z,12.30
2022-11-03T16:08:38.739Z,12.30
2022-11-03T16:11:05.483Z,12.30
2022-11-03T16:13:32.045Z,12.30
2022-11-03T16:15:58.712Z,12.30
2022-11-03T16:18:25.522Z,12.30
2022-11-03T16:20:52.082Z,12.30
2022-11-03T16:23:18.742Z,12.30
2022-11-03T16:25:45.456Z,12.30
2022-11-03T16:28:12.231Z,12.30
2022-11-03T16:30:38.988Z,12.20
2022-11-03T16:33:05.875Z,12.20
2022-11-03T16:35:32.631Z,12.30
2022-11-03T16:37:59.240Z,12.30
2022-11-03T16:40:25.893Z,12.20
2022-11-03T16:42:52.569Z,12.20
2022-11-03T16:45:21.498Z,12.30
2022-11-03T16:47:49.729Z,12.20
2022-11-03T16:50:17.637Z,12.20
2022-11-03T16:52:45.865Z,12.20
2022-11-03T16:55:12.883Z,12.20
2022-11-03T16:57:39.876Z,12.20
2022-11-03T17:00:12.590Z,12.20
2022-11-03T17:02:39.423Z,12.20
2022-11-03T17:05:06.772Z,12.20
2022-11-03T17:07:33.348Z,12.20
2022-11-03T17:09:59.996Z,12.30
2022-11-03T17:12:26.730Z,12.30
2022-11-03T17:14:56.591Z,12.20
2022-11-03T17:17:23.915Z,12.20
2022-11-03T17:19:51.004Z,12.20
2022-11-03T17:22:17.648Z,12.20
2022-11-03T17:24:44.334Z,12.20
2022-11-03T17:27:22.302Z,12.20
2022-11-03T17:29:56.549Z,12.20
2022-11-03T17:32:27.836Z,12.20
2022-11-03T17:34:55.646Z,12.20
2022-11-03T17:37:23.681Z,12.20
2022-11-03T17:39:50.854Z,12.20
2022-11-03T17:42:24.646Z,12.20
2022-11-03T17:44:53.136Z,12.20
2022-11-03T17:47:20.493Z,12.20
2022-11-03T17:49:48.653Z,12.20
2022-11-03T17:52:26.729Z,12.20
2022-11-03T17:54:57.215Z,12.20
2022-11-03T17:57:24.607Z,12.20
2022-11-03T17:59:57.331Z,12.10
2022-11-03T18:02:30.558Z,12.10
2022-11-03T18:05:31.967Z,12.10
2022-11-03T18:08:02.277Z,12.10
2022-11-03T18:10:34.125Z,12.10
2022-11-03T18:13:16.523Z,12.10
2022-11-03T18:15:44.731Z,12.10
2022-11-03T18:18:22.269Z,12.00
2022-11-03T18:20:53.638Z,12.00
2022-11-03T18:23:31.949Z,12.10
2022-11-03T18:26:01.236Z,12.10
2022-11-03T18:28:28.099Z,12.00
2022-11-03T18:30:56.459Z,12.10
2022-11-03T18:33:32.851Z,12.10
2022-11-03T18:36:03.147Z,12.00
2022-11-03T18:38:30.602Z,12.10
2022-11-03T18:40:57.247Z,12.10
2022-11-03T18:43:25.992Z,12.10
2022-11-03T18:45:52.867Z,12.10
2022-11-03T18:48:19.718Z,12.10
2022-11-03T18:50:56.640Z,12.00
2022-11-03T18:53:25.397Z,12.00
2022-11-03T18:55:53.557Z,12.00
2022-11-03T18:58:24.912Z,12.00
2022-11-03T19:00:52.617Z,11.90
2022-11-03T19:03:21.276Z,11.90
2022-11-03T19:05:49.823Z,11.90
2022-11-03T19:08:22.185Z,11.90
2022-11-03T19:10:49.888Z,11.90
2022-11-03T19:13:29.190Z,11.90
2022-11-03T19:16:01.376Z,11.80
2022-11-03T19:18:29.906Z,11.80
2022-11-03T19:20:56.479Z,11.80
2022-11-03T19:23:23.730Z,11.80
2022-11-03T19:25:57.668Z,11.70
2022-11-03T19:28:29.470Z,11.80
2022-11-03T19:30:58.060Z,11.90
2022-11-03T19:33:28.744Z,12.00
2022-11-03T19:35:57.814Z,12.00
2022-11-03T19:38:25.165Z,12.00
2022-11-03T19:41:10.267Z,12.00
2022-11-03T19:43:36.901Z,12.00
2022-11-03T19:46:04.610Z,11.90
2022-11-03T19:48:33.631Z,11.90
2022-11-03T19:51:00.310Z,11.80
2022-11-03T19:53:29.413Z,11.90
2022-11-03T19:55:56.692Z,12.00
2022-11-03T19:58:27.941Z,12.10
2022-11-03T20:00:55.416Z,12.20
2022-11-03T20:03:23.083Z,12.30
2022-11-03T20:05:53.799Z,12.40
2022-11-03T20:08:24.110Z,12.50
2022-11-03T20:10:51.213Z,12.50
2022-11-03T20:13:28.626Z,12.50
2022-11-03T20:16:00.741Z,12.60
2022-11-03T20:18:28.116Z,12.40
2022-11-03T20:20:55.032Z,12.20
2022-11-03T20:23:33.138Z,12.20
2022-11-03T20:26:00.605Z,12.20
2022-11-03T20:28:29.768Z,12.10
2022-11-03T20:30:58.060Z,12.10
2022-11-03T20:33:25.387Z,12.10
2022-11-03T20:35:53.670Z,12.00
2022-11-03T20:38:21.743Z,12.00
2022-11-03T20:40:51.225Z,12.00
2022-11-03T20:43:29.006Z,12.00
2022-11-03T20:45:56.122Z,12.10
2022-11-03T20:48:23.288Z,11.90
2022-11-03T20:50:50.460Z,11.90
2022-11-03T20:53:20.068Z,12.00
2022-11-03T20:55:46.991Z,11.90
2022-11-03T20:58:16.012Z,12.00
2022-11-03T21:00:44.317Z,12.00
2022-11-03T21:06:13.566Z,12.00
2022-11-03T21:08:40.259Z,11.90
2022-11-03T21:11:27.929Z,11.90
2022-11-03T21:14:02.404Z,11.90
2022-11-03T21:16:48.933Z,11.80
2022-11-03T21:19:36.764Z,11.80
2022-11-03T21:22:30.789Z,11.80
2022-11-03T21:25:00.588Z,11.80
2022-11-03T21:27:27.180Z,11.70
2022-11-03T21:29:59.313Z,11.70
2022-11-03T21:32:26.492Z,11.80
2022-11-03T21:34:53.078Z,11.70
2022-11-03T21:37:19.797Z,11.70
2022-11-03T21:39:55.486Z,11.70
2022-11-03T21:42:40.605Z,11.60
2022-11-03T21:45:09.250Z,11.50
2022-11-03T21:47:35.822Z,11.40
2022-11-03T21:50:03.016Z,11.40
2022-11-03T21:52:32.835Z,11.40
2022-11-03T21:55:04.008Z,11.40
2022-11-03T21:57:31.303Z,11.30
2022-11-03T22:00:00.697Z,11.20
2022-11-03T22:02:29.793Z,11.20
2022-11-03T22:04:57.013Z,11.20
2022-11-03T22:07:24.133Z,11.10
2022-11-03T22:09:50.791Z,11.20
2022-11-03T22:12:17.403Z,11.20
2022-11-03T22:15:02.545Z,11.20
2022-11-03T22:17:29.108Z,11.20
2022-11-03T22:20:14.394Z,11.10
2022-11-03T22:22:59.968Z,11.20
2022-11-03T22:25:45.086Z,11.20
2022-11-03T22:28:14.584Z,11.20
2022-11-03T22:31:02.857Z,11.20
2022-11-03T22:33:29.553Z,11.10
2022-11-03T22:36:21.243Z,11.20
2022-11-03T22:39:07.496Z,11.20
2022-11-03T22:41:55.308Z,11.20
2022-11-03T22:44:40.819Z,11.10
2022-11-03T22:47:08.514Z,11.10
2022-11-03T22:49:35.800Z,11.00
2022-11-03T22:52:03.007Z,11.00
2022-11-03T22:54:29.661Z,11.10
2022-11-03T22:56:56.243Z,11.10
2022-11-03T22:59:22.795Z,11.10
2022-11-03T23:01:49.624Z,11.10
2022-11-03T23:04:16.363Z,11.00
2022-11-03T23:06:43.607Z,11.10
2022-11-03T23:09:11.931Z,11.00
2022-11-03T23:11:39.278Z,11.00
2022-11-03T23:14:09.174Z,11.00
2022-11-03T23:16:41.205Z,11.10
2022-11-03T23:19:29.908Z,11.00
2022-11-03T23:21:56.600Z,11.00
2022-11-03T23:24:45.202Z,11.00
2022-11-03T23:27:13.305Z,10.90
2022-11-03T23:29:40.040Z,10.90
2022-11-03T23:32:06.954Z,10.80
2022-11-03T23:34:35.032Z,10.70
2022-11-03T23:37:02.264Z,10.60
2022-11-03T23:39:28.866Z,10.60
2022-11-03T23:41:55.467Z,10.50
2022-11-03T23:44:22.089Z,10.40
2022-11-03T23:47:07.168Z,10.50
2022-11-03T23:49:33.755Z,10.60
2022-11-03T23:52:00.380Z,10.60
2022-11-03T23:54:27.444Z,10.60
2022-11-03T23:57:13.232Z,10.70
2022-11-03T23:59:39.872Z,10.70
